Terminal Aerodrome Forecast
Issued by NWS Amarillo, TX

Home | Current Version | Previous Version | Text Only | Print | Product List | Glossary On
Versions: 1 2 3 4 5 6 7 8 9 10 11 12 13 14 15 16 17 18 19 20
000
FTUS44 KAMA 081127
TAFAMA
TAF
KAMA 081127Z 0812/0912 02009KT P6SM SCT010 BKN070
     FM082100 11009KT P6SM SCT070
     FM090200 15007KT P6SM SCT060
     FM090600 18012KT P6SM SCT070=

USA.gov is the U.S. government's official web portal to all federal, state and local government web resources and services.